createdAt,value
2017-06-12T00:00:40.278Z,532
2017-06-12T00:01:42.660Z,464
2017-06-12T00:02:45.032Z,400
2017-06-12T00:03:47.403Z,348
2017-06-12T00:04:50.399Z,300
2017-06-12T00:05:52.784Z,252
2017-06-12T00:06:55.164Z,212
2017-06-12T00:07:57.521Z,176
2017-06-12T00:08:59.932Z,144
2017-06-12T00:10:02.982Z,120
2017-06-12T00:11:05.352Z,100
2017-06-12T00:12:07.730Z,80
2017-06-12T00:13:10.113Z,64
2017-06-12T00:14:12.497Z,52
2017-06-12T00:15:15.472Z,36
2017-06-12T00:16:17.862Z,32
2017-06-12T00:17:20.254Z,24
2017-06-12T00:18:22.625Z,16
2017-06-12T00:19:24.984Z,12
2017-06-12T00:20:27.939Z,8
2017-06-12T00:21:30.315Z,4
2017-06-12T00:22:32.681Z,4
2017-06-12T00:23:35.051Z,4
2017-06-12T00:24:37.440Z,0
2017-06-12T00:25:40.612Z,4
2017-06-12T00:26:42.976Z,4
2017-06-12T00:27:45.338Z,0
2017-06-12T00:28:47.694Z,0
2017-06-12T00:29:50.096Z,0
2017-06-12T00:30:53.188Z,0
2017-06-12T00:31:55.558Z,0
2017-06-12T00:32:57.937Z,0
2017-06-12T00:34:00.319Z,0
2017-06-12T00:35:02.698Z,0
2017-06-12T00:36:05.772Z,0
2017-06-12T00:37:08.178Z,0
2017-06-12T00:38:10.549Z,0
2017-06-12T00:39:12.943Z,0
2017-06-12T00:40:15.304Z,0
2017-06-12T00:41:18.343Z,0
2017-06-12T00:42:20.698Z,0
2017-06-12T00:43:23.063Z,0
2017-06-12T00:44:25.435Z,0
2017-06-12T00:45:27.805Z,0
2017-06-12T00:46:30.881Z,0
2017-06-12T00:47:33.244Z,0
2017-06-12T00:48:35.654Z,0
2017-06-12T00:49:38.080Z,0
2017-06-12T00:50:40.462Z,0
2017-06-12T00:51:43.574Z,0
2017-06-12T00:52:45.948Z,0
2017-06-12T00:53:48.309Z,0
2017-06-12T00:54:50.674Z,0
2017-06-12T00:55:53.070Z,0
2017-06-12T00:56:56.184Z,0
2017-06-12T00:57:58.559Z,0
2017-06-12T00:59:00.954Z,0
2017-06-12T01:00:03.307Z,0
2017-06-12T01:01:05.686Z,0
2017-06-12T01:02:08.889Z,0
2017-06-12T01:03:11.274Z,0
2017-06-12T01:04:13.663Z,0
2017-06-12T01:05:16.016Z,0
2017-06-12T01:06:18.396Z,0
2017-06-12T01:07:21.736Z,0
2017-06-12T01:08:24.104Z,0
2017-06-12T01:09:26.676Z,0
2017-06-12T01:10:29.051Z,0
2017-06-12T01:11:31.425Z,0
2017-06-12T01:12:34.563Z,0
2017-06-12T01:13:36.930Z,0
2017-06-12T01:14:39.338Z,0
2017-06-12T01:15:41.708Z,0
2017-06-12T01:16:44.113Z,0
2017-06-12T01:17:47.167Z,0
2017-06-12T01:18:49.630Z,0
2017-06-12T01:19:52.013Z,0
2017-06-12T01:20:54.396Z,0
2017-06-12T01:21:56.791Z,0
2017-06-12T01:23:00.075Z,0
2017-06-12T01:24:02.476Z,0
2017-06-12T01:25:04.911Z,0
2017-06-12T01:26:07.282Z,0
2017-06-12T01:27:09.660Z,0
2017-06-12T01:28:12.843Z,0
2017-06-12T01:29:15.275Z,0
2017-06-12T01:30:17.731Z,0
2017-06-12T01:31:20.143Z,0
2017-06-12T01:32:22.546Z,0
2017-06-12T01:33:25.939Z,0
2017-06-12T01:34:28.296Z,0
2017-06-12T01:35:30.894Z,0
2017-06-12T01:36:33.356Z,0
2017-06-12T01:37:35.784Z,0
2017-06-12T01:38:38.909Z,0
2017-06-12T01:39:41.363Z,0
2017-06-12T01:40:43.804Z,0
2017-06-12T01:41:46.197Z,0
2017-06-12T01:42:48.586Z,0
2017-06-12T01:43:51.696Z,0
2017-06-12T01:44:54.056Z,0
2017-06-12T01:45:56.425Z,0
2017-06-12T01:46:58.809Z,0
2017-06-12T01:48:01.225Z,0
2017-06-12T01:49:04.400Z,0
2017-06-12T01:50:06.819Z,0
2017-06-12T01:51:09.244Z,0
2017-06-12T01:52:11.668Z,0
2017-06-12T01:53:14.130Z,0
2017-06-12T01:54:17.319Z,0
2017-06-12T01:55:19.971Z,0
2017-06-12T01:56:22.429Z,0
2017-06-12T01:57:24.876Z,0
2017-06-12T01:58:27.337Z,0
2017-06-12T01:59:30.528Z,0
2017-06-12T02:00:33.136Z,0
2017-06-12T02:01:35.581Z,0
2017-06-12T02:02:38.016Z,0
2017-06-12T02:03:40.457Z,0
2017-06-12T02:04:43.638Z,0
2017-06-12T02:05:46.083Z,0
2017-06-12T02:06:48.516Z,0
2017-06-12T02:07:50.949Z,0
2017-06-12T02:08:53.590Z,0
2017-06-12T02:09:56.831Z,0
2017-06-12T02:10:59.230Z,0
2017-06-12T02:12:01.716Z,0
2017-06-12T02:13:04.129Z,0
2017-06-12T02:14:06.576Z,0
2017-06-12T02:15:09.775Z,0
2017-06-12T02:16:12.204Z,0
2017-06-12T02:17:14.648Z,0
2017-06-12T02:18:17.094Z,0
2017-06-12T02:19:19.522Z,0
2017-06-12T02:20:22.519Z,0
2017-06-12T02:21:24.971Z,0
2017-06-12T02:22:27.369Z,0
2017-06-12T02:23:29.853Z,0
2017-06-12T02:24:32.269Z,0
2017-06-12T02:25:35.350Z,0
2017-06-12T02:26:37.792Z,0
2017-06-12T02:27:40.427Z,0
2017-06-12T02:28:42.845Z,0
2017-06-12T02:29:45.270Z,0
2017-06-12T02:30:48.286Z,0
2017-06-12T02:31:50.749Z,0
2017-06-12T02:32:53.185Z,0
2017-06-12T02:33:55.622Z,0
2017-06-12T02:34:58.056Z,0
2017-06-12T02:36:01.250Z,0
2017-06-12T02:37:03.692Z,0
2017-06-12T02:38:06.116Z,0
2017-06-12T02:39:08.551Z,0
2017-06-12T02:40:11.004Z,0
2017-06-12T02:41:13.943Z,0
2017-06-12T02:42:16.353Z,0
2017-06-12T02:43:18.786Z,0
2017-06-12T02:44:21.225Z,0
2017-06-12T02:45:23.659Z,0
2017-06-12T02:46:26.862Z,0
2017-06-12T02:47:29.306Z,0
2017-06-12T02:48:31.706Z,0
2017-06-12T02:49:34.049Z,0
2017-06-12T02:50:36.426Z,0
2017-06-12T02:51:41.315Z,0
2017-06-12T02:52:43.689Z,0
2017-06-12T02:53:46.060Z,0
2017-06-12T02:54:48.440Z,0
2017-06-12T02:55:50.824Z,0
2017-06-12T02:56:53.726Z,0
2017-06-12T02:57:56.301Z,0
2017-06-12T02:58:58.896Z,0
2017-06-12T03:00:01.262Z,0
2017-06-12T03:01:03.643Z,0
2017-06-12T03:02:06.627Z,0
2017-06-12T03:03:09.013Z,0
2017-06-12T03:04:11.373Z,0
2017-06-12T03:05:13.757Z,0
2017-06-12T03:06:16.131Z,0
2017-06-12T03:07:19.286Z,0
2017-06-12T03:08:21.680Z,0
2017-06-12T03:09:24.050Z,0
2017-06-12T03:10:26.440Z,0
2017-06-12T03:11:28.862Z,0
2017-06-12T03:12:31.844Z,0
2017-06-12T03:13:34.226Z,0
2017-06-12T03:14:36.605Z,0
2017-06-12T03:15:38.970Z,0
2017-06-12T03:16:41.360Z,0
2017-06-12T03:17:44.495Z,0
2017-06-12T03:18:46.863Z,0
2017-06-12T03:19:49.245Z,0
2017-06-12T03:20:51.622Z,0
2017-06-12T03:21:53.991Z,0
2017-06-12T03:22:57.070Z,0
2017-06-12T03:23:59.441Z,0
2017-06-12T03:25:01.806Z,0
2017-06-12T03:26:04.184Z,0
2017-06-12T03:27:06.553Z,0
2017-06-12T03:28:09.632Z,0
2017-06-12T03:29:11.985Z,0
2017-06-12T03:30:14.344Z,0
2017-06-12T03:31:16.725Z,0
2017-06-12T03:32:19.081Z,0
2017-06-12T03:33:22.145Z,0
2017-06-12T03:34:24.514Z,0
2017-06-12T03:35:26.869Z,0
2017-06-12T03:36:29.261Z,0
2017-06-12T03:37:31.654Z,0
2017-06-12T03:38:34.569Z,0
2017-06-12T03:39:36.928Z,0
2017-06-12T03:40:39.310Z,0
2017-06-12T03:41:41.675Z,0
2017-06-12T03:42:44.046Z,0
2017-06-12T03:43:47.025Z,0
2017-06-12T03:44:49.411Z,0
2017-06-12T03:45:51.764Z,0
2017-06-12T03:46:54.141Z,0
2017-06-12T03:47:56.523Z,0
2017-06-12T03:48:59.482Z,0
2017-06-12T03:50:01.838Z,0
2017-06-12T03:51:04.211Z,0
2017-06-12T03:52:06.603Z,0
2017-06-12T03:53:08.984Z,0
2017-06-12T03:54:12.120Z,0
2017-06-12T03:55:14.487Z,0
2017-06-12T03:56:16.877Z,0
2017-06-12T03:57:19.257Z,0
2017-06-12T03:58:21.600Z,0
2017-06-12T03:59:24.721Z,0
2017-06-12T04:00:27.088Z,0
2017-06-12T04:01:29.464Z,0
2017-06-12T04:02:31.819Z,0
2017-06-12T04:03:34.175Z,0
2017-06-12T04:04:37.250Z,0
2017-06-12T04:05:39.613Z,0
2017-06-12T04:06:42.176Z,0
2017-06-12T04:07:44.560Z,0
2017-06-12T04:08:46.916Z,0
2017-06-12T04:09:49.870Z,0
2017-06-12T04:10:52.266Z,0
2017-06-12T04:11:54.625Z,0
2017-06-12T04:12:56.996Z,0
2017-06-12T04:13:59.384Z,0
2017-06-12T04:15:02.327Z,0
2017-06-12T04:16:04.711Z,0
2017-06-12T04:17:07.079Z,0
2017-06-12T04:18:09.436Z,0
2017-06-12T04:19:11.793Z,0
2017-06-12T04:20:14.780Z,0
2017-06-12T04:21:17.159Z,0
2017-06-12T04:22:19.512Z,0
2017-06-12T04:23:21.893Z,0
2017-06-12T04:24:24.252Z,0
2017-06-12T04:25:27.231Z,0
2017-06-12T04:26:29.572Z,0
2017-06-12T04:27:31.950Z,0
2017-06-12T04:28:34.330Z,0
2017-06-12T04:29:36.890Z,0
2017-06-12T04:30:39.836Z,0
2017-06-12T04:31:42.219Z,0
2017-06-12T04:32:44.605Z,0
2017-06-12T04:33:46.972Z,0
2017-06-12T04:34:49.331Z,0
2017-06-12T04:35:52.250Z,0
2017-06-12T04:36:54.638Z,0
2017-06-12T04:37:56.992Z,0
2017-06-12T04:38:59.360Z,0
2017-06-12T04:40:01.728Z,0
2017-06-12T04:41:04.844Z,0
2017-06-12T04:42:07.214Z,0
2017-06-12T04:43:09.568Z,0
2017-06-12T04:44:11.923Z,0
2017-06-12T04:45:14.282Z,0
2017-06-12T04:46:17.393Z,0
2017-06-12T04:47:19.751Z,0
2017-06-12T04:48:22.109Z,0
2017-06-12T04:49:24.469Z,0
2017-06-12T04:50:26.850Z,0
2017-06-12T04:51:29.919Z,0
2017-06-12T04:52:32.289Z,0
2017-06-12T04:53:34.847Z,0
2017-06-12T04:54:37.203Z,0
2017-06-12T04:55:39.563Z,0
2017-06-12T04:56:42.524Z,0
2017-06-12T04:57:44.899Z,0
2017-06-12T04:58:47.285Z,0
2017-06-12T04:59:49.630Z,0
2017-06-12T05:00:51.991Z,0
2017-06-12T05:01:54.980Z,0
2017-06-12T05:02:57.368Z,0
2017-06-12T05:03:59.746Z,0
2017-06-12T05:05:02.139Z,0
2017-06-12T05:06:04.496Z,0
2017-06-12T05:07:07.473Z,0
2017-06-12T05:08:09.843Z,0
2017-06-12T05:09:12.228Z,0
2017-06-12T05:10:14.607Z,0
2017-06-12T05:11:16.974Z,0
2017-06-12T05:12:20.055Z,0
2017-06-12T05:13:22.432Z,0
2017-06-12T05:14:24.797Z,0
2017-06-12T05:15:27.186Z,0
2017-06-12T05:16:29.534Z,0
2017-06-12T05:17:32.652Z,0
2017-06-12T05:18:35.005Z,0
2017-06-12T05:19:37.376Z,0
2017-06-12T05:20:39.741Z,0
2017-06-12T05:21:42.106Z,0
2017-06-12T05:22:45.180Z,0
2017-06-12T05:23:47.529Z,0
2017-06-12T05:24:50.107Z,0
2017-06-12T05:25:52.488Z,0
2017-06-12T05:26:54.875Z,0
2017-06-12T05:27:57.990Z,0
2017-06-12T05:29:00.346Z,0
2017-06-12T05:30:02.705Z,0
2017-06-12T05:31:05.073Z,0
2017-06-12T05:32:07.453Z,0
2017-06-12T05:33:10.519Z,0
2017-06-12T05:34:12.886Z,0
2017-06-12T05:35:15.252Z,0
2017-06-12T05:36:17.613Z,0
2017-06-12T05:37:19.965Z,0
2017-06-12T05:38:22.924Z,0
2017-06-12T05:39:25.280Z,0
2017-06-12T05:40:27.639Z,0
2017-06-12T05:41:30.004Z,0
2017-06-12T05:42:32.370Z,0
2017-06-12T05:43:35.328Z,0
2017-06-12T05:44:37.680Z,0
2017-06-12T05:45:40.052Z,0
2017-06-12T05:46:42.400Z,0
2017-06-12T05:47:44.762Z,0
2017-06-12T05:48:47.737Z,0
2017-06-12T05:49:50.106Z,0
2017-06-12T05:50:52.460Z,0
2017-06-12T05:51:54.821Z,0
2017-06-12T05:52:57.179Z,0
2017-06-12T05:54:00.290Z,0
2017-06-12T05:55:02.643Z,0
2017-06-12T05:56:05.003Z,0
2017-06-12T05:57:07.351Z,0
2017-06-12T05:58:09.717Z,0
2017-06-12T05:59:12.971Z,0
2017-06-12T06:00:15.329Z,0
2017-06-12T06:01:17.689Z,0
2017-06-12T06:02:20.043Z,0
2017-06-12T06:03:22.424Z,0
2017-06-12T06:04:25.360Z,0
2017-06-12T06:05:27.712Z,0
2017-06-12T06:06:30.071Z,0
2017-06-12T06:07:32.430Z,0
2017-06-12T06:08:34.800Z,0
2017-06-12T06:09:37.856Z,0
2017-06-12T06:10:40.206Z,0
2017-06-12T06:11:42.566Z,0
2017-06-12T06:12:44.920Z,0
2017-06-12T06:13:47.277Z,0
2017-06-12T06:14:50.332Z,0
2017-06-12T06:15:52.695Z,0
2017-06-12T06:16:55.040Z,0
2017-06-12T06:17:57.397Z,0
2017-06-12T06:18:59.750Z,0
2017-06-12T06:20:02.802Z,0
2017-06-12T06:21:05.172Z,0
2017-06-12T06:22:07.519Z,0
2017-06-12T06:23:09.893Z,0
2017-06-12T06:24:12.245Z,0
2017-06-12T06:25:15.211Z,0
2017-06-12T06:26:17.567Z,0
2017-06-12T06:27:19.922Z,0
2017-06-12T06:28:22.276Z,0
2017-06-12T06:29:24.627Z,0
2017-06-12T06:30:27.579Z,0
2017-06-12T06:31:29.933Z,0
2017-06-12T06:32:32.296Z,0
2017-06-12T06:33:34.648Z,0
2017-06-12T06:34:36.998Z,0
2017-06-12T06:35:39.902Z,0
2017-06-12T06:36:42.268Z,0
2017-06-12T06:37:44.627Z,0
2017-06-12T06:38:46.983Z,0
2017-06-12T06:39:49.332Z,0
2017-06-12T06:40:52.546Z,0
2017-06-12T06:41:54.907Z,0
2017-06-12T06:42:57.255Z,0
2017-06-12T06:43:59.614Z,0
2017-06-12T06:45:01.968Z,0
2017-06-12T06:46:04.922Z,0
2017-06-12T06:47:07.277Z,0
2017-06-12T06:48:09.634Z,0
2017-06-12T06:49:11.990Z,0
2017-06-12T06:50:14.347Z,0
2017-06-12T06:51:17.296Z,0
2017-06-12T06:52:19.654Z,0
2017-06-12T06:53:22.005Z,0
2017-06-12T06:54:24.364Z,0
2017-06-12T06:55:26.711Z,0
2017-06-12T06:56:29.763Z,0
2017-06-12T06:57:32.125Z,0
2017-06-12T06:58:34.480Z,0
2017-06-12T06:59:36.833Z,0
2017-06-12T07:00:39.185Z,0
2017-06-12T07:01:42.255Z,0
2017-06-12T07:02:44.602Z,0
2017-06-12T07:03:46.957Z,0
2017-06-12T07:04:49.306Z,0
2017-06-12T07:05:51.664Z,0
2017-06-12T07:06:54.721Z,0
2017-06-12T07:07:57.079Z,0
2017-06-12T07:08:59.432Z,0
2017-06-12T07:10:01.980Z,0
2017-06-12T07:11:04.355Z,0
2017-06-12T07:12:07.246Z,0
2017-06-12T07:13:09.611Z,0
2017-06-12T07:14:11.963Z,0
2017-06-12T07:15:14.321Z,0
2017-06-12T07:16:16.681Z,0
2017-06-12T07:17:19.728Z,0
2017-06-12T07:18:22.084Z,0
2017-06-12T07:19:24.439Z,0
2017-06-12T07:20:26.795Z,0
2017-06-12T07:21:29.143Z,0
2017-06-12T07:22:32.050Z,0
2017-06-12T07:23:34.410Z,0
2017-06-12T07:24:36.756Z,0
2017-06-12T07:25:39.115Z,0
2017-06-12T07:26:41.466Z,0
2017-06-12T07:27:44.383Z,0
2017-06-12T07:28:46.733Z,0
2017-06-12T07:29:49.078Z,0
2017-06-12T07:30:51.430Z,0
2017-06-12T07:31:53.784Z,0
2017-06-12T07:32:56.839Z,0
2017-06-12T07:33:59.187Z,0
2017-06-12T07:35:01.737Z,0
2017-06-12T07:36:04.086Z,0
2017-06-12T07:37:06.448Z,0
2017-06-12T07:38:09.507Z,0
2017-06-12T07:39:11.865Z,0
2017-06-12T07:40:14.217Z,0
2017-06-12T07:41:16.578Z,0
2017-06-12T07:42:18.925Z,0
2017-06-12T07:43:21.991Z,0
2017-06-12T07:44:24.348Z,0
2017-06-12T07:45:26.691Z,0
2017-06-12T07:46:29.037Z,0
2017-06-12T07:47:31.403Z,0
2017-06-12T07:48:34.353Z,0
2017-06-12T07:49:36.705Z,0
2017-06-12T07:50:39.056Z,0
2017-06-12T07:51:41.415Z,0
2017-06-12T07:52:43.778Z,0
2017-06-12T07:53:46.736Z,0
2017-06-12T07:54:49.090Z,0
2017-06-12T07:55:51.446Z,0
2017-06-12T07:56:53.790Z,0
2017-06-12T07:57:56.152Z,0
2017-06-12T07:58:59.112Z,0
2017-06-12T08:00:01.477Z,0
2017-06-12T08:01:03.828Z,0
2017-06-12T08:02:06.185Z,0
2017-06-12T08:03:08.533Z,0
2017-06-12T08:04:11.497Z,0
2017-06-12T08:05:13.863Z,0
2017-06-12T08:06:16.217Z,0
2017-06-12T08:07:18.570Z,0
2017-06-12T08:08:20.936Z,0
2017-06-12T08:09:23.995Z,0
2017-06-12T08:10:26.340Z,0
2017-06-12T08:11:28.701Z,0
2017-06-12T08:12:31.054Z,0
2017-06-12T08:13:33.410Z,0
2017-06-12T08:14:36.475Z,0
2017-06-12T08:15:38.824Z,0
2017-06-12T08:16:41.181Z,0
2017-06-12T08:17:43.524Z,0
2017-06-12T08:18:45.883Z,0
2017-06-12T08:19:49.292Z,0
2017-06-12T08:20:51.651Z,0
2017-06-12T08:21:54.010Z,0
2017-06-12T08:22:56.365Z,0
2017-06-12T08:23:58.725Z,0
2017-06-12T08:25:02.181Z,0
2017-06-12T08:26:04.527Z,0
2017-06-12T08:27:06.890Z,0
2017-06-12T08:28:09.247Z,0
2017-06-12T08:29:11.599Z,0
2017-06-12T08:30:14.651Z,0
2017-06-12T08:31:17.015Z,0
2017-06-12T08:32:19.370Z,0
2017-06-12T08:33:21.731Z,0
2017-06-12T08:34:24.080Z,0
2017-06-12T08:35:27.138Z,0
2017-06-12T08:36:29.506Z,0
2017-06-12T08:37:31.862Z,0
2017-06-12T08:38:34.222Z,0
2017-06-12T08:39:36.577Z,0
2017-06-12T08:40:39.624Z,0
2017-06-12T08:41:41.975Z,0
2017-06-12T08:42:44.333Z,0
2017-06-12T08:43:46.689Z,0
2017-06-12T08:44:49.046Z,0
2017-06-12T08:45:52.097Z,0
2017-06-12T08:46:54.454Z,0
2017-06-12T08:47:56.816Z,0
2017-06-12T08:48:59.164Z,0
2017-06-12T08:50:01.517Z,0
2017-06-12T08:51:04.576Z,0
2017-06-12T08:52:06.934Z,0
2017-06-12T08:53:09.284Z,0
2017-06-12T08:54:11.649Z,0
2017-06-12T08:55:14.001Z,0
2017-06-12T08:56:16.915Z,0
2017-06-12T08:57:19.280Z,0
2017-06-12T08:58:21.646Z,0
2017-06-12T08:59:24.001Z,0
2017-06-12T09:00:26.346Z,0
2017-06-12T09:01:29.404Z,0
2017-06-12T09:02:31.761Z,0
2017-06-12T09:03:34.114Z,0
2017-06-12T09:04:36.465Z,0
2017-06-12T09:05:38.822Z,0
2017-06-12T09:06:42.134Z,0
2017-06-12T09:07:44.487Z,0
2017-06-12T09:08:46.839Z,0
2017-06-12T09:09:49.209Z,0
2017-06-12T09:10:51.552Z,0
2017-06-12T09:11:55.157Z,0
2017-06-12T09:12:57.511Z,0
2017-06-12T09:13:59.868Z,0
2017-06-12T09:15:02.227Z,0
2017-06-12T09:16:04.581Z,0
2017-06-12T09:17:07.633Z,0
2017-06-12T09:18:09.997Z,0
2017-06-12T09:19:12.344Z,0
2017-06-12T09:20:14.703Z,0
2017-06-12T09:21:17.055Z,0
2017-06-12T09:22:20.017Z,0
2017-06-12T09:23:22.366Z,0
2017-06-12T09:24:24.712Z,0
2017-06-12T09:25:27.071Z,0
2017-06-12T09:26:29.430Z,0
2017-06-12T09:27:32.491Z,0
2017-06-12T09:28:34.838Z,0
2017-06-12T09:29:37.205Z,0
2017-06-12T09:30:39.547Z,0
2017-06-12T09:31:41.905Z,0
2017-06-12T09:32:44.967Z,0
2017-06-12T09:33:47.322Z,0
2017-06-12T09:34:49.679Z,0
2017-06-12T09:35:52.031Z,0
2017-06-12T09:36:54.382Z,0
2017-06-12T09:37:57.490Z,0
2017-06-12T09:38:59.838Z,0
2017-06-12T09:40:02.192Z,0
2017-06-12T09:41:04.546Z,0
2017-06-12T09:42:06.898Z,0
2017-06-12T09:43:09.952Z,0
2017-06-12T09:44:12.312Z,0
2017-06-12T09:45:14.665Z,0
2017-06-12T09:46:17.018Z,0
2017-06-12T09:47:19.377Z,0
2017-06-12T09:48:22.428Z,0
2017-06-12T09:49:24.782Z,0
2017-06-12T09:50:27.148Z,0
2017-06-12T09:51:29.506Z,0
2017-06-12T09:52:31.857Z,0
2017-06-12T09:53:34.910Z,0
2017-06-12T09:54:37.272Z,0
2017-06-12T09:55:39.644Z,0
2017-06-12T09:56:41.994Z,0
2017-06-12T09:57:44.355Z,0
2017-06-12T09:58:47.280Z,0
2017-06-12T09:59:49.635Z,0
2017-06-12T10:00:51.985Z,0
2017-06-12T10:01:54.346Z,0
2017-06-12T10:02:56.713Z,0
2017-06-12T10:03:59.615Z,0
2017-06-12T10:05:01.967Z,0
2017-06-12T10:06:04.320Z,0
2017-06-12T10:07:06.669Z,0
2017-06-12T10:08:09.025Z,0
2017-06-12T10:09:12.077Z,0
2017-06-12T10:10:14.430Z,0
2017-06-12T10:11:16.784Z,0
2017-06-12T10:12:19.150Z,0
2017-06-12T10:13:21.507Z,0
2017-06-12T10:14:24.408Z,0
2017-06-12T10:15:26.765Z,0
2017-06-12T10:16:29.128Z,0
2017-06-12T10:17:31.476Z,0
2017-06-12T10:18:33.826Z,0
2017-06-12T10:19:36.882Z,0
2017-06-12T10:20:39.234Z,0
2017-06-12T10:21:41.594Z,0
2017-06-12T10:22:43.945Z,0
2017-06-12T10:23:46.301Z,0
2017-06-12T10:24:49.356Z,0
2017-06-12T10:25:51.712Z,0
2017-06-12T10:26:54.074Z,0
2017-06-12T10:27:56.422Z,0
2017-06-12T10:28:58.784Z,0
2017-06-12T10:30:01.735Z,0
2017-06-12T10:31:04.090Z,0
2017-06-12T10:32:06.451Z,0
2017-06-12T10:33:08.804Z,0
2017-06-12T10:34:11.161Z,0
2017-06-12T10:35:14.081Z,0
2017-06-12T10:36:16.431Z,0
2017-06-12T10:37:18.793Z,0
2017-06-12T10:38:21.136Z,0
2017-06-12T10:39:23.497Z,0
2017-06-12T10:40:26.552Z,0
2017-06-12T10:41:28.908Z,0
2017-06-12T10:42:31.274Z,0
2017-06-12T10:43:33.619Z,0
2017-06-12T10:44:35.978Z,0
2017-06-12T10:45:39.029Z,0
2017-06-12T10:46:41.397Z,0
2017-06-12T10:47:43.752Z,0
2017-06-12T10:48:46.097Z,0
2017-06-12T10:49:48.472Z,0
2017-06-12T10:50:51.416Z,0
2017-06-12T10:51:53.775Z,0
2017-06-12T10:52:56.128Z,0
2017-06-12T10:53:58.481Z,0
2017-06-12T10:55:00.842Z,0
2017-06-12T10:56:03.893Z,0
2017-06-12T10:57:06.253Z,0
2017-06-12T10:58:08.610Z,0
2017-06-12T10:59:10.968Z,0
2017-06-12T11:00:13.329Z,0
2017-06-12T11:01:16.286Z,0
2017-06-12T11:03:01.847Z,0
2017-06-12T11:04:04.210Z,0
2017-06-12T11:05:06.561Z,0
2017-06-12T11:06:08.918Z,0
2017-06-12T11:07:11.971Z,0
2017-06-12T11:08:14.336Z,0
2017-06-12T11:09:16.690Z,0
2017-06-12T11:10:19.048Z,0
2017-06-12T11:11:21.406Z,0
2017-06-12T11:12:24.317Z,0
2017-06-12T11:13:26.666Z,0
2017-06-12T11:14:29.024Z,0
2017-06-12T11:15:31.392Z,0
2017-06-12T11:16:33.738Z,0
2017-06-12T11:17:36.640Z,0
2017-06-12T11:18:38.998Z,0
2017-06-12T11:19:41.360Z,0
2017-06-12T11:20:43.715Z,0
2017-06-12T11:21:46.061Z,0
2017-06-12T11:22:49.013Z,0
2017-06-12T11:23:51.377Z,0
2017-06-12T11:24:53.722Z,0
2017-06-12T11:25:56.085Z,0
2017-06-12T11:26:58.455Z,0
2017-06-12T11:28:01.364Z,0
2017-06-12T11:29:03.720Z,0
2017-06-12T11:30:06.066Z,0
2017-06-12T11:31:08.416Z,0
2017-06-12T11:32:10.776Z,0
2017-06-12T11:33:13.685Z,0
2017-06-12T11:34:16.032Z,4
2017-06-12T11:35:18.399Z,4
2017-06-12T11:36:20.758Z,4
2017-06-12T11:37:23.101Z,4
2017-06-12T11:38:26.162Z,8
2017-06-12T11:39:28.515Z,12
2017-06-12T11:40:30.874Z,16
2017-06-12T11:41:33.233Z,24
2017-06-12T11:42:35.594Z,28
2017-06-12T11:43:38.651Z,32
2017-06-12T11:44:41.012Z,44
2017-06-12T11:45:43.369Z,56
2017-06-12T11:46:45.716Z,76
2017-06-12T11:47:48.082Z,92
2017-06-12T11:48:50.992Z,116
2017-06-12T11:49:53.355Z,148
2017-06-12T11:50:55.713Z,180
2017-06-12T11:51:58.074Z,220
2017-06-12T11:53:00.435Z,268
2017-06-12T11:54:03.341Z,316
2017-06-12T11:55:05.701Z,360
2017-06-12T11:56:08.058Z,416
2017-06-12T11:57:10.425Z,484
2017-06-12T11:58:12.779Z,560
2017-06-12T11:59:15.840Z,644
2017-06-12T12:00:18.203Z,740
2017-06-12T12:01:20.558Z,860
2017-06-12T12:02:22.919Z,972
2017-06-12T12:03:25.279Z,1064
2017-06-12T12:04:28.185Z,1144
2017-06-12T12:05:30.559Z,1236
2017-06-12T12:06:32.919Z,1348
2017-06-12T12:07:35.275Z,1460
2017-06-12T12:08:37.632Z,1564
2017-06-12T12:09:40.699Z,1664
2017-06-12T12:10:43.064Z,1760
2017-06-12T12:11:45.408Z,1860
2017-06-12T12:12:47.774Z,1980
2017-06-12T12:13:50.147Z,2088
2017-06-12T12:14:53.224Z,2192
2017-06-12T12:15:55.560Z,2284
2017-06-12T12:16:57.921Z,2392
2017-06-12T12:18:00.281Z,2512
2017-06-12T12:19:02.639Z,2608
2017-06-12T12:20:05.550Z,2724
2017-06-12T12:21:07.906Z,2876
2017-06-12T12:22:10.266Z,3048
2017-06-12T12:23:12.625Z,3260
2017-06-12T12:24:14.986Z,3404
2017-06-12T12:25:18.048Z,3556
2017-06-12T12:26:20.409Z,3712
2017-06-12T12:27:22.770Z,4548
2017-06-12T12:28:25.125Z,4328
2017-06-12T12:29:27.487Z,4200
2017-06-12T12:30:30.396Z,4696
2017-06-12T12:31:32.756Z,4976
2017-06-12T12:32:35.115Z,4956
2017-06-12T12:33:37.485Z,5068
2017-06-12T12:34:39.844Z,5624
2017-06-12T12:35:42.746Z,5220
2017-06-12T12:36:45.116Z,5172
2017-06-12T12:37:47.476Z,6044
2017-06-12T12:38:49.829Z,5520
2017-06-12T12:39:52.194Z,5304
2017-06-12T12:40:55.154Z,5484
2017-06-12T12:41:57.519Z,5772
2017-06-12T12:42:59.875Z,5920
2017-06-12T12:44:02.237Z,6032
2017-06-12T12:45:04.595Z,6228
2017-06-12T12:46:07.660Z,6868
2017-06-12T12:47:10.024Z,7196
2017-06-12T12:48:12.392Z,7688
2017-06-12T12:49:14.753Z,8144
2017-06-12T12:50:17.117Z,8492
2017-06-12T12:51:20.196Z,8928
2017-06-12T12:52:22.552Z,8864
2017-06-12T12:53:24.917Z,8300
2017-06-12T12:54:27.271Z,7724
2017-06-12T12:55:29.633Z,7236
2017-06-12T12:56:32.552Z,7124
2017-06-12T12:57:34.910Z,7504
2017-06-12T12:58:37.273Z,7300
2017-06-12T12:59:39.634Z,6932
2017-06-12T13:00:42.010Z,6908
2017-06-12T13:01:45.071Z,6720
2017-06-12T13:02:47.434Z,8704
2017-06-12T13:03:49.830Z,7276
2017-06-12T13:04:52.185Z,8008
2017-06-12T13:05:54.537Z,8188
2017-06-12T13:06:57.600Z,8176
2017-06-12T13:07:59.963Z,10564
2017-06-12T13:09:02.325Z,6928
2017-06-12T13:10:04.693Z,6284
2017-06-12T13:11:07.059Z,7804
2017-06-12T13:12:10.017Z,6228
2017-06-12T13:13:12.379Z,12100
2017-06-12T13:14:14.751Z,12608
2017-06-12T13:15:17.105Z,12848
2017-06-12T13:16:19.468Z,13176
2017-06-12T13:17:22.533Z,13428
2017-06-12T13:18:24.899Z,13188
2017-06-12T13:19:27.247Z,12964
2017-06-12T13:20:29.624Z,9192
2017-06-12T13:21:31.984Z,14912
2017-06-12T13:22:35.108Z,15264
2017-06-12T13:23:37.467Z,6436
2017-06-12T13:24:39.826Z,12952
2017-06-12T13:25:42.190Z,16640
2017-06-12T13:26:44.565Z,15904
2017-06-12T13:27:47.472Z,16672
2017-06-12T13:28:49.837Z,16864
2017-06-12T13:29:52.209Z,17504
2017-06-12T13:30:54.572Z,18016
2017-06-12T13:31:56.937Z,18304
2017-06-12T13:32:59.919Z,18944
2017-06-12T13:34:02.268Z,19456
2017-06-12T13:35:04.639Z,19904
2017-06-12T13:36:06.998Z,20704
2017-06-12T13:37:09.366Z,20960
2017-06-12T13:38:12.429Z,21248
2017-06-12T13:39:14.825Z,21216
2017-06-12T13:40:17.186Z,21952
2017-06-12T13:41:19.759Z,22272
2017-06-12T13:42:22.120Z,23136
2017-06-12T13:43:25.094Z,23616
2017-06-12T13:44:27.466Z,23968
2017-06-12T13:45:29.828Z,24384
2017-06-12T13:46:32.195Z,24544
2017-06-12T13:47:34.571Z,25280
2017-06-12T13:48:37.483Z,25440
2017-06-12T13:49:39.843Z,25632
2017-06-12T13:50:42.221Z,26048
2017-06-12T13:51:44.584Z,27296
2017-06-12T13:52:46.949Z,27712
2017-06-12T13:53:49.867Z,28064
2017-06-12T13:54:52.243Z,29152
2017-06-12T13:55:54.608Z,29536
2017-06-12T13:56:56.974Z,30144
2017-06-12T13:57:59.340Z,30784
2017-06-12T13:59:02.409Z,32288
2017-06-12T14:00:04.785Z,34400
2017-06-12T14:01:07.139Z,34560
2017-06-12T14:02:09.507Z,35296
2017-06-12T14:03:11.880Z,35808
2017-06-12T14:04:14.955Z,37440
2017-06-12T14:05:17.322Z,37632
2017-06-12T14:06:19.685Z,37152
2017-06-12T14:07:22.827Z,38304
2017-06-12T14:08:24.437Z,38496
2017-06-12T14:09:29.482Z,38592
2017-06-12T14:10:33.083Z,39168
2017-06-12T14:12:51.915Z,41472
2017-06-12T14:13:55.385Z,43104
2017-06-12T14:14:59.586Z,42976
2017-06-12T14:16:03.501Z,43968
2017-06-12T14:17:09.755Z,43712
2017-06-12T14:18:13.370Z,43296
2017-06-12T14:20:20.765Z,43200
2017-06-12T14:22:32.666Z,43488
2017-06-12T14:23:36.657Z,44448
2017-06-12T14:24:40.037Z,44288
2017-06-12T14:25:43.946Z,44352
2017-06-12T14:26:47.283Z,45280
2017-06-12T14:27:51.125Z,47264
2017-06-12T14:28:54.309Z,49568
2017-06-12T14:29:57.820Z,46752
2017-06-12T14:31:01.680Z,47104
2017-06-12T14:32:07.577Z,49088
2017-06-12T14:33:11.313Z,49568
2017-06-12T14:34:14.254Z,51200
2017-06-12T14:35:17.842Z,52992
2017-06-12T14:36:20.983Z,55936
2017-06-12T14:37:24.796Z,56576
2017-06-12T14:38:29.572Z,56032
2017-06-12T14:39:33.094Z,56416
2017-06-12T14:40:36.270Z,56480
2017-06-12T14:41:39.227Z,58880
2017-06-12T14:42:43.202Z,60544
2017-06-12T14:43:46.609Z,61056
2017-06-12T14:44:49.527Z,57280
2017-06-12T14:45:52.216Z,56320
2017-06-12T14:46:55.331Z,54048
2017-06-12T14:47:57.689Z,51136
2017-06-12T14:49:00.058Z,53408
2017-06-12T14:50:02.429Z,56128
2017-06-12T14:51:04.997Z,56480
2017-06-12T14:52:07.991Z,58144
2017-06-12T14:53:10.368Z,60832
2017-06-12T14:54:12.833Z,60736
2017-06-12T14:55:15.593Z,62016
2017-06-12T14:56:18.467Z,62848
2017-06-12T14:57:21.547Z,59424
2017-06-12T14:58:23.917Z,61632
2017-06-12T14:59:26.286Z,65312
2017-06-12T15:00:28.667Z,67104
2017-06-12T15:01:31.054Z,59840
2017-06-12T15:02:34.118Z,57568
2017-06-12T15:03:36.486Z,58016